Time;durP1;ratioP1;P1;durP2;ratioP2;P2;SDS_P1;SDS_P2;PMS_P1;PMS_P2;Temp;Humidity;BMP_temperature;BMP_pressure;BME280_temperature;BME280_humidity;BME280_pressure;Samples;Min_cycle;Max_cycle;Signal;HPM_P1;HPM_P2
2021/03/31 00:01:46;;;;;;;5.20;4.20;;;;;;;4.01;100.00;102030.88;5030321;28;20037;-76
2021/03/31 00:04:12;;;;;;;7.03;4.80;;;;;;;3.99;100.00;102024.75;5018138;28;20129;-76
2021/03/31 00:06:39;;;;;;;7.40;3.93;;;;;;;3.95;100.00;102023.75;5030610;28;20090;-76
2021/03/31 00:09:05;;;;;;;6.87;4.40;;;;;;;3.89;100.00;102018.38;5028816;28;20040;-76
2021/03/31 00:11:31;;;;;;;4.70;4.20;;;;;;;3.82;100.00;102014.69;5047426;28;20044;-76
2021/03/31 00:13:58;;;;;;;6.93;4.73;;;;;;;3.78;100.00;102009.31;5013791;28;20037;-76
2021/03/31 00:16:24;;;;;;;6.10;3.70;;;;;;;3.72;100.00;102011.78;5029849;28;20494;-76
2021/03/31 00:18:50;;;;;;;4.33;3.73;;;;;;;3.69;100.00;102009.94;5048204;28;20049;-76
2021/03/31 00:21:17;;;;;;;6.70;4.20;;;;;;;3.65;100.00;102005.47;5047588;28;20043;-76
2021/03/31 00:23:44;;;;;;;6.77;4.43;;;;;;;3.59;100.00;101998.31;4994074;28;20045;-76
2021/03/31 00:26:10;;;;;;;8.60;4.30;;;;;;;3.55;100.00;101998.22;5031257;28;20045;-76
2021/03/31 00:28:36;;;;;;;4.73;3.80;;;;;;;3.52;100.00;102005.94;5029605;28;20033;-76
2021/03/31 00:31:02;;;;;;;4.67;3.80;;;;;;;3.49;100.00;102000.63;4997978;28;20132;-76
2021/03/31 00:33:28;;;;;;;5.57;4.07;;;;;;;3.48;100.00;102001.47;5028474;28;20684;-76
2021/03/31 00:35:55;;;;;;;6.03;4.20;;;;;;;3.43;100.00;102003.06;5047821;28;20037;-78
2021/03/31 00:38:21;;;;;;;6.47;4.30;;;;;;;3.37;100.00;102003.78;5013566;28;20053;-77
2021/03/31 00:40:51;;;;;;;5.77;4.33;;;;;;;3.33;100.00;102001.91;5012936;28;20037;-78
2021/03/31 00:43:21;;;;;;;6.20;4.00;;;;;;;3.28;100.00;101996.56;5012343;28;20444;-78
2021/03/31 00:45:47;;;;;;;5.57;4.30;;;;;;;3.23;100.00;101994.63;5008446;28;20145;-78
2021/03/31 00:48:15;;;;;;;4.90;3.73;;;;;;;3.19;100.00;101996.22;5007209;28;20094;-75
2021/03/31 00:50:59;;;;;;;6.67;4.57;;;;;;;3.16;100.00;101992.66;5045302;28;20044;-75
2021/03/31 00:53:55;;;;;;;7.53;4.05;;;;;;;3.10;100.00;101988.13;5044619;22;20033;-74
2021/03/31 00:56:21;;;;;;;5.27;4.00;;;;;;;3.04;100.00;101994.06;5013682;28;20052;-74
2021/03/31 00:58:47;;;;;;;6.30;4.50;;;;;;;3.00;100.00;101993.91;5011643;28;20048;-73
2021/03/31 01:01:13;;;;;;;6.27;4.20;;;;;;;2.98;100.00;101995.59;5010846;28;20057;-74
2021/03/31 01:03:40;;;;;;;5.77;4.10;;;;;;;2.94;100.00;101993.69;5027522;28;20049;-73
2021/03/31 01:06:06;;;;;;;4.83;3.80;;;;;;;2.90;100.00;101994.44;5030167;28;20041;-73
2021/03/31 01:08:32;;;;;;;4.40;3.30;;;;;;;2.89;100.00;101995.28;5029444;28;20060;-72
2021/03/31 01:10:58;;;;;;;5.17;3.97;;;;;;;2.86;100.00;101997.78;5028227;28;20087;-72
2021/03/31 01:13:32;;;;;;;6.03;3.80;;;;;;;2.83;100.00;101998.56;5012178;28;20044;-70
2021/03/31 01:16:08;;;;;;;7.20;4.90;;;;;;;2.78;100.00;102006.28;5005688;28;20037;-70
2021/03/31 01:18:59;;;;;;;5.63;3.80;;;;;;;2.73;100.00;101999.13;5041209;28;20142;-70
2021/03/31 01:21:50;;;;;;;7.27;4.20;;;;;;;2.70;100.00;102001.66;5039776;28;20039;-70
2021/03/31 01:24:35;;;;;;;5.97;3.97;;;;;;;2.67;100.00;101996.31;5023038;28;20041;-70
2021/03/31 01:27:09;;;;;;;6.00;3.83;;;;;;;2.61;100.00;101986.56;5026585;28;20114;-70
2021/03/31 01:30:04;;;;;;;7.82;3.78;;;;;;;2.57;100.00;102000.34;5041499;28;20037;-69
2021/03/31 01:32:33;;;;;;;6.90;4.40;;;;;;;2.52;100.00;101988.84;5023723;28;20037;-69
2021/03/31 01:35:10;;;;;;;5.97;4.27;;;;;;;2.48;100.00;101989.59;5044530;28;20715;-70
2021/03/31 01:37:50;;;;;;;6.63;4.13;;;;;;;2.47;100.00;102003.47;5010081;28;20045;-69
2021/03/31 01:40:19;;;;;;;5.63;4.20;;;;;;;2.43;100.00;101993.75;5022404;28;20043;-69
2021/03/31 01:43:08;;;;;;;6.13;3.90;;;;;;;2.39;100.00;101991.91;5008286;28;20048;-70
2021/03/31 01:45:36;;;;;;;6.00;4.20;;;;;;;2.33;100.00;101982.13;5044234;28;20111;-69
2021/03/31 01:48:11;;;;;;;6.07;4.20;;;;;;;2.31;100.00;101985.53;5036799;28;20375;-70
2021/03/31 01:50:38;;;;;;;5.65;3.85;;;;;;;2.25;100.00;101974.03;5008892;28;20045;-70
2021/03/31 01:53:05;;;;;;;5.70;4.83;;;;;;;2.26;100.00;101983.63;5009592;28;20041;-69
2021/03/31 01:55:32;;;;;;;6.37;4.40;;;;;;;2.22;100.00;101981.78;5021388;28;20048;-70
2021/03/31 01:57:59;;;;;;;5.17;3.47;;;;;;;2.19;100.00;101976.47;5011272;28;20123;-69
2021/03/31 02:00:25;;;;;;;5.60;3.90;;;;;;;2.18;100.00;101973.78;5027231;28;20037;-70
2021/03/31 02:02:54;;;;;;;5.10;3.87;;;;;;;2.14;100.00;101975.41;5026485;28;20032;-70
2021/03/31 02:05:21;;;;;;;4.77;3.60;;;;;;;2.13;100.00;101978.84;5028189;28;20456;-69
2021/03/31 02:07:48;;;;;;;4.30;3.43;;;;;;;2.12;100.00;101977.06;5028560;28;20041;-70
2021/03/31 02:10:16;;;;;;;6.73;4.17;;;;;;;2.09;100.00;101974.34;5027533;28;20089;-69
2021/03/31 02:12:43;;;;;;;4.90;4.03;;;;;;;2.06;100.00;101970.75;5013233;28;20061;-69
2021/03/31 02:15:13;;;;;;;6.00;4.10;;;;;;;2.00;100.00;101976.63;5025128;28;20037;-70
2021/03/31 02:17:40;;;;;;;6.17;4.33;;;;;;;1.94;100.00;101973.81;5020574;28;20398;-70
2021/03/31 02:20:07;;;;;;;7.07;4.50;;;;;;;1.87;100.00;101977.03;5025645;28;20064;-70
2021/03/31 02:22:35;;;;;;;7.07;4.90;;;;;;;1.81;100.00;101969.00;5028546;28;20041;-69
2021/03/31 02:25:04;;;;;;;7.17;4.87;;;;;;;1.75;100.00;101973.97;5011491;28;20111;-70
2021/03/31 02:27:31;;;;;;;5.57;4.27;;;;;;;1.71;100.00;101967.78;5027251;28;20116;-69
2021/03/31 02:29:57;;;;;;;6.43;4.33;;;;;;;1.70;100.00;101966.00;5025620;28;20514;-70
2021/03/31 02:32:23;;;;;;;7.93;5.20;;;;;;;1.67;100.00;101971.09;5027578;28;20041;-70
2021/03/31 02:34:52;;;;;;;6.57;4.20;;;;;;;1.63;100.00;101962.28;5027408;28;20045;-70
2021/03/31 02:37:20;;;;;;;6.57;4.17;;;;;;;1.61;100.00;101961.34;5029071;28;20048;-70
2021/03/31 02:39:47;;;;;;;6.17;4.30;;;;;;;1.58;100.00;101957.72;5009989;28;20514;-70
2021/03/31 02:42:16;;;;;;;5.93;4.33;;;;;;;1.56;100.00;101960.28;5046327;28;20048;-69
2021/03/31 02:44:47;;;;;;;6.83;4.20;;;;;;;1.53;100.00;101956.69;5027303;28;20033;-70
2021/03/31 02:47:21;;;;;;;6.10;3.97;;;;;;;1.49;100.00;101954.78;5010950;28;20040;-70
2021/03/31 02:49:49;;;;;;;5.65;3.72;;;;;;;1.47;100.00;101961.66;5026396;28;20091;-70
2021/03/31 02:52:18;;;;;;;8.47;4.53;;;;;;;1.44;100.00;101962.44;5011553;28;20048;-69
2021/03/31 02:54:44;;;;;;;5.23;3.80;;;;;;;1.42;100.00;101961.47;5026312;28;20073;-70
2021/03/31 02:57:10;;;;;;;5.40;3.80;;;;;;;1.40;100.00;101953.63;5010663;28;20045;-71
2021/03/31 02:59:40;;;;;;;6.53;4.70;;;;;;;1.38;100.00;101957.88;5043079;28;20041;-72
2021/03/31 03:02:09;;;;;;;6.83;4.53;;;;;;;1.38;100.00;101949.19;5011529;28;20671;-73
2021/03/31 03:04:37;;;;;;;5.93;4.30;;;;;;;1.36;100.00;101948.25;5011271;28;20121;-74
2021/03/31 03:07:06;;;;;;;5.83;3.60;;;;;;;1.33;100.00;101954.22;5009099;28;20074;-73
2021/03/31 03:09:32;;;;;;;6.33;4.30;;;;;;;1.32;100.00;101951.56;5014239;28;20067;-73
2021/03/31 03:11:59;;;;;;;5.40;3.90;;;;;;;1.29;100.00;101948.84;5007979;28;20045;-72
2021/03/31 03:14:29;;;;;;;6.23;4.47;;;;;;;1.29;100.00;101943.63;5030842;28;20043;-73
2021/03/31 03:16:55;;;;;;;6.07;4.23;;;;;;;1.26;100.00;101940.91;5011349;28;20045;-72
2021/03/31 03:19:21;;;;;;;7.30;4.70;;;;;;;1.24;100.00;101939.97;5004905;28;20043;-72
2021/03/31 03:21:48;;;;;;;6.87;4.40;;;;;;;1.24;100.00;101932.16;5031198;28;20662;-72
2021/03/31 03:24:15;;;;;;;7.93;4.90;;;;;;;1.26;100.00;101931.41;5031246;28;20489;-72
2021/03/31 03:26:42;;;;;;;6.30;4.90;;;;;;;1.22;100.00;101933.81;5014010;28;20044;-72
2021/03/31 03:29:08;;;;;;;6.50;4.60;;;;;;;1.17;100.00;101935.34;5027150;28;20034;-73
2021/03/31 03:31:36;;;;;;;5.73;4.20;;;;;;;1.11;100.00;101929.09;5013474;28;20036;-72
2021/03/31 03:34:08;;;;;;;5.50;3.77;;;;;;;1.06;100.00;101925.41;5046746;28;20045;-72
2021/03/31 03:36:35;;;;;;;7.90;4.67;;;;;;;0.99;100.00;101926.00;5013440;28;20041;-74
2021/03/31 03:39:03;;;;;;;6.33;4.27;;;;;;;0.91;100.00;101918.72;5047448;28;20040;-72
2021/03/31 03:41:30;;;;;;;6.93;4.70;;;;;;;0.86;100.00;101928.97;5028942;28;20025;-72
2021/03/31 03:43:56;;;;;;;8.40;5.23;;;;;;;0.81;100.00;101928.78;5047695;28;20037;-73
2021/03/31 03:46:22;;;;;;;6.63;5.03;;;;;;;0.77;100.00;101928.63;5029145;28;20029;-73
2021/03/31 03:48:49;;;;;;;4.80;3.70;;;;;;;0.72;100.00;101923.22;5028765;28;20510;-72
2021/03/31 03:51:15;;;;;;;5.27;3.70;;;;;;;0.70;100.00;101921.41;5049064;28;20033;-71
2021/03/31 03:53:41;;;;;;;6.83;4.50;;;;;;;0.67;100.00;101921.25;5030327;28;20660;-75
2021/03/31 03:56:11;;;;;;;4.50;3.70;;;;;;;0.64;100.00;101923.75;5014054;28;20041;-72
2021/03/31 03:58:38;;;;;;;6.70;4.47;;;;;;;0.61;100.00;101921.91;5011381;28;20117;-72
2021/03/31 04:01:05;;;;;;;7.90;4.73;;;;;;;0.56;100.00;101920.84;5011865;28;20417;-72
2021/03/31 04:03:31;;;;;;;5.97;4.23;;;;;;;0.52;100.00;101918.94;5048373;28;20037;-73
2021/03/31 04:05:58;;;;;;;6.23;4.37;;;;;;;0.46;100.00;101922.19;5014163;28;20044;-72
2021/03/31 04:08:24;;;;;;;6.33;4.20;;;;;;;0.43;100.00;101923.78;5013269;28;20041;-72
2021/03/31 04:10:53;;;;;;;7.60;4.77;;;;;;;0.40;100.00;101921.03;5024877;28;20033;-72
2021/03/31 04:13:23;;;;;;;6.90;4.67;;;;;;;0.39;100.00;101927.06;5013131;28;20037;-73
2021/03/31 04:15:53;;;;;;;7.23;4.70;;;;;;;0.38;100.00;101927.88;5011956;28;20064;-72
2021/03/31 04:18:21;;;;;;;5.40;4.33;;;;;;;0.36;100.00;101909.63;5012993;28;20498;-72
2021/03/31 04:20:51;;;;;;;7.03;4.47;;;;;;;0.40;100.00;101916.72;5049235;28;20406;-72
2021/03/31 04:23:17;;;;;;;7.27;4.50;;;;;;;0.41;100.00;101918.50;5032030;28;20492;-73
2021/03/31 04:25:44;;;;;;;6.53;4.33;;;;;;;0.39;100.00;101916.66;5024788;28;20174;-72
2021/03/31 04:28:11;;;;;;;8.87;4.47;;;;;;;0.37;100.00;101915.72;5046248;28;20667;-73
2021/03/31 04:30:39;;;;;;;7.77;4.70;;;;;;;0.34;100.00;101920.78;5046945;28;20052;-72
2021/03/31 04:33:08;;;;;;;6.23;4.03;;;;;;;0.32;100.00;101918.13;5029769;28;20045;-73
2021/03/31 04:35:35;;;;;;;5.73;4.20;;;;;;;0.30;100.00;101913.69;5045122;28;20033;-73
2021/03/31 04:38:09;;;;;;;7.30;5.00;;;;;;;0.26;100.00;101903.19;5024438;28;20033;-72
2021/03/31 04:40:54;;;;;;;7.85;4.63;;;;;;;0.26;100.00;101904.91;5010041;28;20037;-73
2021/03/31 04:43:22;;;;;;;6.73;4.73;;;;;;;0.24;100.00;101898.72;5029469;28;20044;-74
2021/03/31 04:45:49;;;;;;;9.63;4.80;;;;;;;0.24;100.00;101898.72;5027977;28;20037;-72
2021/03/31 04:48:15;;;;;;;6.93;4.80;;;;;;;0.24;100.00;101898.72;5029670;28;20049;-73
2021/03/31 04:50:42;;;;;;;6.30;4.63;;;;;;;0.24;100.00;101890.94;5029306;28;20547;-73
2021/03/31 04:53:08;;;;;;;7.10;4.70;;;;;;;0.25;100.00;101896.22;5011302;28;20131;-72
2021/03/31 04:55:35;;;;;;;8.10;5.23;;;;;;;0.26;100.00;101889.31;5010722;28;20517;-75
2021/03/31 04:58:01;;;;;;;7.37;4.90;;;;;;;0.26;100.00;101892.78;5027479;28;20056;-74
2021/03/31 05:00:27;;;;;;;7.27;4.73;;;;;;;0.25;100.00;101896.22;5027591;28;20091;-73
2021/03/31 05:02:54;;;;;;;8.23;4.80;;;;;;;0.27;100.00;101893.66;5010875;28;20033;-73
2021/03/31 05:05:20;;;;;;;7.40;4.73;;;;;;;0.27;100.00;101886.75;5047268;28;20052;-72
2021/03/31 05:07:46;;;;;;;6.20;4.73;;;;;;;0.32;100.00;101880.84;5027239;28;20041;-72
2021/03/31 05:10:12;;;;;;;8.40;4.67;;;;;;;0.33;100.00;101880.91;5026155;28;20103;-72
2021/03/31 05:12:38;;;;;;;6.67;4.73;;;;;;;0.35;100.00;101879.28;5009681;28;20038;-72
2021/03/31 05:15:06;;;;;;;6.60;4.53;;;;;;;0.37;100.00;101880.22;5020752;28;20052;-72
2021/03/31 05:17:32;;;;;;;7.97;5.23;;;;;;;0.37;100.00;101872.41;5011250;28;20047;-73
2021/03/31 05:19:59;;;;;;;7.80;4.53;;;;;;;0.40;100.00;101880.31;5013347;28;20501;-73
2021/03/31 05:22:25;;;;;;;5.87;4.50;;;;;;;0.42;100.00;101877.78;5011560;28;20073;-73
2021/03/31 05:24:52;;;;;;;6.73;4.80;;;;;;;0.45;100.00;101880.53;5026671;28;20398;-72
2021/03/31 05:27:18;;;;;;;6.77;4.73;;;;;;;0.49;100.00;101878.09;5014328;28;20114;-72
2021/03/31 05:29:44;;;;;;;7.00;4.23;;;;;;;0.54;100.00;101886.09;5027146;28;20477;-73
2021/03/31 05:32:10;;;;;;;7.17;4.70;;;;;;;0.61;100.00;101871.63;5028971;28;20135;-73
2021/03/31 05:34:37;;;;;;;6.40;4.37;;;;;;;0.67;100.00;101872.72;5012519;28;20055;-73
2021/03/31 05:37:04;;;;;;;6.57;4.53;;;;;;;0.74;100.00;101871.25;5043483;28;20060;-72
2021/03/31 05:39:30;;;;;;;7.37;4.80;;;;;;;0.80;100.00;101861.09;5010527;28;20637;-74
2021/03/31 05:41:57;;;;;;;6.10;4.63;;;;;;;0.85;100.00;101875.19;5045873;28;20033;-73
2021/03/31 05:44:23;;;;;;;6.33;4.83;;;;;;;0.89;100.00;101866.66;5027802;28;20056;-73
2021/03/31 05:46:51;;;;;;;7.13;4.90;;;;;;;0.93;100.00;101872.88;5010592;28;20048;-73
2021/03/31 05:49:18;;;;;;;6.80;4.70;;;;;;;0.99;100.00;101876.56;5028395;28;20052;-73
2021/03/31 05:51:44;;;;;;;6.17;4.50;;;;;;;1.06;100.00;101869.88;4989032;28;20045;-73
2021/03/31 05:54:11;;;;;;;7.73;4.30;;;;;;;1.11;100.00;101866.63;5029640;28;20134;-74
2021/03/31 05:56:37;;;;;;;7.10;4.37;;;;;;;1.20;100.00;101866.09;5042970;28;20044;-73
2021/03/31 05:59:04;;;;;;;8.43;5.03;;;;;;;1.27;100.00;101862.88;5037287;28;20048;-72
2021/03/31 06:01:31;;;;;;;5.77;4.40;;;;;;;1.35;100.00;101863.16;5011310;28;20029;-73
2021/03/31 06:03:58;;;;;;;6.77;4.17;;;;;;;1.42;100.00;101859.91;5045843;28;20045;-73
2021/03/31 06:06:25;;;;;;;6.73;4.87;;;;;;;1.51;100.00;101862.84;5028124;28;20128;-73
2021/03/31 06:08:52;;;;;;;6.60;4.90;;;;;;;1.58;100.00;101863.97;5016613;28;20510;-72
2021/03/31 06:11:20;;;;;;;7.77;4.50;;;;;;;1.65;100.00;101866.84;5043648;28;20037;-73
2021/03/31 06:13:57;;;;;;;8.97;5.20;;;;;;;1.76;100.00;101867.19;5011161;28;20044;-73
2021/03/31 06:16:32;;;;;;;7.50;4.50;;;;;;;1.91;100.00;101862.53;5023847;28;20041;-73
2021/03/31 06:19:20;;;;;;;7.10;4.93;;;;;;;2.07;100.00;101855.22;5024152;28;20041;-73
2021/03/31 06:25:02;;;;;;;6.87;4.73;;;;;;;2.43;100.00;101852.91;5014958;28;20041;-73
2021/03/31 06:27:29;;;;;;;8.40;5.30;;;;;;;3.39;100.00;101861.91;5027216;28;20199;-72
2021/03/31 06:30:05;;;;;;;8.53;5.77;;;;;;;4.88;100.00;101861.28;5026586;28;20098;-73
2021/03/31 06:32:39;;;;;;;6.97;4.27;;;;;;;6.49;93.69;101852.09;5011228;28;20048;-73
2021/03/31 06:35:17;;;;;;;7.13;5.05;;;;;;;-144.87;100.00;56979.78;5025272;28;20091;-74
2021/03/31 06:37:44;;;;;;;6.33;4.73;;;;;;;-144.87;100.00;56979.78;5037859;28;20052;-73
2021/03/31 06:40:33;;;;;;;8.03;4.17;;;;;;;-144.87;100.00;56979.78;5007789;28;20075;-73
2021/03/31 06:43:17;;;;;;;6.28;4.55;;;;;;;-144.87;100.00;56979.78;5028865;28;21034;-73
2021/03/31 06:46:07;;;;;;;5.78;4.00;;;;;;;-144.87;100.00;56979.78;5043328;28;20544;-74
2021/03/31 06:48:32;;;;;;;5.47;4.25;;;;;;;-144.87;100.00;56979.78;5037179;28;20449;-74
2021/03/31 06:50:58;;;;;;;4.95;3.80;;;;;;;-144.87;100.00;56979.78;5047192;28;20498;-74
2021/03/31 06:53:26;;;;;;;4.25;3.67;;;;;;;-144.87;100.00;56979.78;5010413;28;20048;-73
2021/03/31 06:56:00;;;;;;;5.03;3.95;;;;;;;-144.87;100.00;56979.78;5030562;28;20037;-74
2021/03/31 06:58:27;;;;;;;5.68;3.40;;;;;;;-144.87;100.00;56979.78;5045388;28;20649;-73
2021/03/31 07:00:53;;;;;;;4.25;3.85;;;;;;;-144.87;100.00;56979.78;5012543;28;20625;-73
2021/03/31 07:03:20;;;;;;;5.03;3.78;;;;;;;-144.87;100.00;56979.78;5033085;28;20048;-73
2021/03/31 07:06:45;;;;;;;5.55;4.25;;;;;;;-144.87;100.00;56979.78;5075143;22;20044;-88
2021/03/31 07:11:22;;;;;;;4.50;3.83;;;;;;;-144.87;100.00;56979.78;5030295;28;20053;-88
2021/03/31 07:15:29;;;;;;;;;;;;;;;-144.87;100.00;56979.78;4958361;28;20045;-88
2021/03/31 07:17:56;;;;;;;4.38;3.97;;;;;;;-144.87;100.00;56979.78;4987258;28;19920;-88
2021/03/31 07:20:23;;;;;;;5.47;3.88;;;;;;;-144.87;100.00;56979.78;5008730;28;20046;-88
2021/03/31 07:22:50;;;;;;;4.15;3.50;;;;;;;-144.87;100.00;56979.78;4992235;28;20136;-88
2021/03/31 07:25:17;;;;;;;4.53;4.07;;;;;;;-144.87;100.00;56979.78;5002715;28;20045;-88
2021/03/31 07:27:45;;;;;;;3.80;3.25;;;;;;;-144.87;100.00;56979.78;5002783;28;20041;-88
2021/03/31 07:32:09;;;;;;;4.30;3.85;;;;;;;21.89;42.83;101807.09;5085099;27;20376;-74
2021/03/31 07:34:38;;;;;;;4.35;3.58;;;;;;;22.10;43.72;101804.28;5093046;28;20178;-74
2021/03/31 07:37:06;;;;;;;4.82;3.58;;;;;;;22.56;42.78;101804.63;5079133;28;20662;-75
2021/03/31 07:39:33;;;;;;;3.97;3.53;;;;;;;23.16;41.32;101802.31;5084655;28;20037;-74
2021/03/31 07:42:00;;;;;;;4.18;3.60;;;;;;;23.70;40.09;101809.16;5089969;28;20032;-74
2021/03/31 07:44:30;;;;;;;4.00;3.58;;;;;;;24.24;39.31;101812.31;5071089;28;20139;-74
2021/03/31 07:46:57;;;;;;;4.90;4.00;;;;;;;24.77;38.81;101808.22;5085010;28;20049;-74
2021/03/31 07:49:24;;;;;;;3.90;3.22;;;;;;;25.02;39.39;101806.69;5088312;28;20064;-74
2021/03/31 07:52:02;;;;;;;5.50;4.13;;;;;;;25.58;37.31;101810.34;5085881;28;20373;-74
2021/03/31 07:54:30;;;;;;;4.40;3.80;;;;;;;25.92;37.82;101799.06;5076110;28;20036;-74
2021/03/31 07:56:58;;;;;;;4.63;3.80;;;;;;;26.48;38.21;101807.00;5086307;28;20040;-74
2021/03/31 07:59:25;;;;;;;7.28;5.43;;;;;;;27.19;36.40;101792.97;5072680;28;20438;-75
2021/03/31 08:01:53;;;;;;;4.75;4.25;;;;;;;27.91;34.50;101796.66;5088671;28;20587;-74
2021/03/31 08:04:30;;;;;;;5.68;4.53;;;;;;;28.07;36.59;101799.06;5074780;28;20051;-74
2021/03/31 08:06:56;;;;;;;6.97;5.10;;;;;;;28.35;34.55;101795.16;5085035;28;20515;-75
2021/03/31 08:09:27;;;;;;;8.80;5.55;;;;;;;28.80;34.79;101792.50;5095501;28;20048;-74
2021/03/31 08:11:58;;;;;;;8.13;6.05;;;;;;;29.35;32.99;101796.28;5080868;28;20120;-75
2021/03/31 08:14:27;;;;;;;7.10;5.53;;;;;;;29.83;30.85;101787.75;5092155;28;20507;-74
2021/03/31 08:16:58;;;;;;;7.90;6.05;;;;;;;29.84;29.97;101793.06;5086663;28;20036;-74
2021/03/31 08:19:55;;;;;;;7.70;5.82;;;;;;;29.91;30.17;101798.88;5107652;28;20058;-74
2021/03/31 08:22:34;;;;;;;11.35;6.63;;;;;;;30.22;29.34;101789.88;5092283;28;20056;-74
2021/03/31 08:25:12;;;;;;;7.82;6.10;;;;;;;30.48;27.64;101800.38;5079835;28;20127;-75
2021/03/31 08:27:54;;;;;;;8.88;5.63;;;;;;;30.67;27.30;101789.63;5068279;28;20508;-74
2021/03/31 08:30:20;;;;;;;8.68;5.63;;;;;;;29.97;28.20;101788.34;5080545;28;20102;-74
2021/03/31 08:32:46;;;;;;;7.35;5.68;;;;;;;30.10;27.10;101785.47;5070329;28;20055;-75
2021/03/31 08:35:13;;;;;;;8.65;5.18;;;;;;;30.87;26.92;101790.63;5085598;28;20617;-75
2021/03/31 08:37:41;;;;;;;7.85;5.90;;;;;;;31.31;27.01;101775.75;5073046;28;20047;-74
2021/03/31 08:40:08;;;;;;;7.68;5.95;;;;;;;31.69;26.17;101782.28;5067531;28;20032;-75
2021/03/31 08:42:34;;;;;;;12.10;6.15;;;;;;;31.87;24.91;101782.50;5075974;28;20036;-74
2021/03/31 08:45:03;;;;;;;8.77;6.38;;;;;;;31.66;24.11;101779.84;5079514;28;20044;-75
2021/03/31 08:47:33;;;;;;;10.70;7.03;;;;;;;31.58;25.98;101776.94;5065808;28;20071;-75
2021/03/31 08:50:09;;;;;;;10.52;7.90;;;;;;;30.93;25.17;101776.41;5067216;28;20041;-74
2021/03/31 08:52:37;;;;;;;8.65;6.78;;;;;;;31.35;25.14;101768.97;5057778;28;20051;-75
2021/03/31 08:55:09;;;;;;;8.77;6.57;;;;;;;31.82;24.17;101773.84;5071451;28;20044;-75
2021/03/31 08:57:35;;;;;;;8.05;6.57;;;;;;;31.96;24.15;101769.84;5077385;28;20044;-74
2021/03/31 09:00:06;;;;;;;9.77;7.55;;;;;;;32.03;23.14;101768.22;5069984;28;20052;-73
2021/03/31 09:02:36;;;;;;;10.43;7.50;;;;;;;31.45;24.22;101762.66;5076433;28;20036;-73
2021/03/31 09:05:03;;;;;;;11.82;7.55;;;;;;;30.95;24.99;101758.06;5069767;28;20049;-73
2021/03/31 09:07:30;;;;;;;8.85;6.68;;;;;;;31.80;24.26;101770.41;5071275;28;20037;-73
2021/03/31 09:09:56;;;;;;;10.80;6.05;;;;;;;32.51;23.55;101762.75;5086152;28;20043;-73
2021/03/31 09:12:29;;;;;;;9.48;6.65;;;;;;;32.21;23.37;101758.31;5065819;28;20036;-74
2021/03/31 09:14:59;;;;;;;8.68;6.38;;;;;;;32.06;23.37;101759.75;5059291;28;20048;-73
2021/03/31 09:17:27;;;;;;;11.43;6.72;;;;;;;32.24;23.59;101751.69;5056362;28;20155;-74
2021/03/31 09:19:56;;;;;;;9.18;6.82;;;;;;;32.69;22.46;101746.41;5067421;28;20040;-74
2021/03/31 09:22:27;;;;;;;11.50;7.65;;;;;;;32.39;22.94;101745.66;5058041;28;20032;-73
2021/03/31 09:25:14;;;;;;;12.18;7.97;;;;;;;32.14;22.67;101743.50;5072087;28;20090;-74
2021/03/31 09:28:00;;;;;;;12.80;8.38;;;;;;;31.54;23.22;101740.00;5081038;28;20043;-74
2021/03/31 09:30:27;;;;;;;10.95;7.20;;;;;;;32.45;22.72;101741.44;5074273;28;20037;-73
2021/03/31 09:33:00;;;;;;;12.60;7.70;;;;;;;32.82;22.53;101736.00;5073506;28;20052;-73
2021/03/31 09:35:29;;;;;;;13.10;7.72;;;;;;;31.82;21.76;101733.72;5061243;28;20050;-74
2021/03/31 09:37:57;;;;;;;13.32;8.27;;;;;;;31.69;21.94;101730.38;5075213;28;20504;-73
2021/03/31 09:40:37;;;;;;;12.95;8.88;;;;;;;32.02;24.02;101722.78;5069612;28;20040;-74
2021/03/31 09:43:06;;;;;;;13.52;9.23;;;;;;;32.90;21.53;101727.09;5073037;28;20052;-73
2021/03/31 09:45:34;;;;;;;13.95;9.40;;;;;;;31.88;22.62;101714.03;5076811;28;20040;-74
2021/03/31 09:48:02;;;;;;;16.00;8.88;;;;;;;32.16;21.52;101711.41;5055758;28;20040;-73
2021/03/31 09:50:29;;;;;;;14.15;10.35;;;;;;;32.20;20.99;101704.63;5054959;28;20081;-75
2021/03/31 09:52:58;;;;;;;16.83;10.48;;;;;;;31.60;20.08;101712.97;5056730;28;20050;-73
2021/03/31 09:55:24;;;;;;;12.63;8.85;;;;;;;32.52;21.36;101703.41;5068428;28;20139;-73
2021/03/31 09:57:52;;;;;;;13.15;8.60;;;;;;;32.49;20.39;101708.19;5060468;28;20043;-74
2021/03/31 10:00:20;;;;;;;15.85;9.48;;;;;;;31.64;21.13;101706.22;5072657;28;20050;-74
2021/03/31 10:02:47;;;;;;;13.40;9.10;;;;;;;31.89;19.83;101704.81;5081593;28;20055;-74
2021/03/31 10:05:19;;;;;;;12.80;9.65;;;;;;;31.81;19.62;101701.09;5070365;28;20123;-74
2021/03/31 10:07:59;;;;;;;11.77;8.55;;;;;;;31.69;20.14;101692.13;5072920;28;20048;-73
2021/03/31 10:10:59;;;;;;;12.48;8.52;;;;;;;32.96;18.66;101691.75;5066297;28;20703;-74
2021/03/31 10:13:25;;;;;;;12.32;7.60;;;;;;;33.18;18.34;101687.72;5067197;28;20072;-73
2021/03/31 10:16:00;;;;;;;11.73;7.70;;;;;;;32.86;17.62;101685.44;5056862;28;20909;-73
2021/03/31 10:18:27;;;;;;;12.38;8.43;;;;;;;32.75;19.40;101683.75;5079415;28;20082;-74
2021/03/31 10:20:57;;;;;;;13.10;8.25;;;;;;;33.12;17.31;101682.00;5083250;28;20032;-73
2021/03/31 10:23:31;;;;;;;12.18;8.27;;;;;;;32.61;18.15;101675.16;5057910;28;20055;-74
2021/03/31 10:26:21;;;;;;;13.40;8.50;;;;;;;33.22;18.28;101680.06;5063313;28;20048;-74
2021/03/31 10:28:52;;;;;;;13.32;9.55;;;;;;;34.27;17.34;101666.47;5065318;28;20432;-74
2021/03/31 10:31:42;;;;;;;14.57;9.88;;;;;;;32.93;16.96;101672.88;5049646;28;20098;-74
2021/03/31 10:34:15;;;;;;;13.45;9.32;;;;;;;33.02;17.55;101665.63;5055003;28;20059;-75
2021/03/31 10:48:08;;;;;;;11.57;8.93;;;;;;;32.38;16.17;101644.59;5070803;28;20048;-74
2021/03/31 10:50:42;;;;;;;12.52;8.73;;;;;;;32.85;17.04;101645.41;5069671;28;20035;-74
2021/03/31 10:53:10;;;;;;;12.48;9.13;;;;;;;33.63;16.08;101642.13;5067537;28;20045;-74
2021/03/31 10:55:39;;;;;;;10.70;8.32;;;;;;;34.38;17.18;101630.53;5048224;28;20059;-73
2021/03/31 10:58:05;;;;;;;15.20;10.63;;;;;;;33.86;16.53;101632.41;5079368;28;20036;-74
2021/03/31 11:00:34;;;;;;;12.65;8.20;;;;;;;34.81;15.48;101622.34;5071287;28;20041;-74
2021/03/31 11:03:18;;;;;;;12.45;8.65;;;;;;;35.39;15.01;101626.97;5058810;28;20070;-75
2021/03/31 11:05:44;;;;;;;12.23;9.68;;;;;;;34.00;14.73;101622.78;5064139;28;20040;-74
2021/03/31 11:08:10;;;;;;;12.18;9.00;;;;;;;34.08;15.24;101620.94;5049701;28;20045;-75
2021/03/31 11:10:36;;;;;;;12.32;10.15;;;;;;;33.89;15.16;101621.16;5060688;28;20081;-74
2021/03/31 11:13:02;;;;;;;9.32;7.60;;;;;;;34.03;16.43;101615.06;5064313;28;20040;-73
2021/03/31 11:15:29;;;;;;;14.57;10.00;;;;;;;34.43;14.37;101614.47;5068568;28;20048;-73
2021/03/31 11:20:50;;;;;;;13.38;9.20;;;;;;;32.62;16.71;101608.47;5068330;28;20047;-74
2021/03/31 11:26:01;;;;;;;13.30;9.70;;;;;;;34.94;15.64;101584.31;5060948;28;20304;-73
2021/03/31 11:28:28;;;;;;;13.55;9.77;;;;;;;34.12;15.18;101581.19;5065236;28;20045;-72
2021/03/31 11:30:55;;;;;;;14.23;9.80;;;;;;;34.17;16.93;101585.34;5063351;28;20037;-71
2021/03/31 11:33:22;;;;;;;17.08;9.88;;;;;;;34.22;16.36;101575.56;5065828;28;20751;-73
2021/03/31 11:35:50;;;;;;;12.23;8.80;;;;;;;35.01;16.11;101579.03;5064294;28;20052;-72
2021/03/31 11:38:16;;;;;;;11.80;8.55;;;;;;;34.55;14.22;101568.38;5067478;28;20044;-74
2021/03/31 11:40:43;;;;;;;11.40;8.80;;;;;;;34.42;13.69;101576.25;5055927;28;20118;-73
2021/03/31 11:43:11;;;;;;;12.15;8.43;;;;;;;33.44;13.93;101569.19;5064561;28;20047;-72
2021/03/31 11:45:37;;;;;;;11.45;9.18;;;;;;;33.04;15.39;101565.91;5065418;28;20059;-73
2021/03/31 11:48:04;;;;;;;14.27;9.10;;;;;;;32.88;15.53;101554.78;5068283;28;20048;-72
2021/03/31 11:50:31;;;;;;;13.75;9.95;;;;;;;32.82;15.67;101549.91;5051932;28;20515;-72
2021/03/31 11:52:57;;;;;;;12.32;8.98;;;;;;;32.55;15.43;101545.31;5053276;28;20183;-72
2021/03/31 11:55:23;;;;;;;13.68;9.70;;;;;;;31.47;15.72;101540.31;5049362;28;20052;-72
2021/03/31 11:57:50;;;;;;;12.73;8.82;;;;;;;31.86;15.60;101535.66;5071175;28;20081;-71
2021/03/31 12:00:17;;;;;;;13.60;8.20;;;;;;;32.65;17.20;101526.97;5062979;28;20036;-73